Porter County Municipal Airport
KVPZ : now visible

Airfield :











YOU CAN JOIN US ON...

 
LOGIN :

Register | Disclaimer

   EN    FR    IT 

 









Legend :    VFR   Marginal VFR   IFR   Intensive IFR   Very Intensive IFR
Visi :
Ceiling :
>= 8 km
>= 3000ft
5 to 8 km
1000 to 3000 ft
1500m to 5 km
500 to 1000 ft
800 to 1500m
200 to 500 ft
< 800m
< 200 ft
Symbols :   Thunderstorms  Fog  Heavy snow  Heavy precipitations  Wind > 20 kt






- Airport Elevation : 770 ft


KVPZ - Porter County Municipal

CURRENT METAR :
  • 152329Z AUTO 21014G22KT 10SM -RA FEW020 BKN027 OVC032 18/12 A2973 RMK AO2 RAB24 P0000 T01780122

EXPIRED METARs :
  • 152256Z AUTO 20015G25KT 10SM BKN032 BKN042 OVC050 18/12 A2974 RMK AO2 SLP072 T01830117
  • 152156Z AUTO 20015G22KT 10SM OVC030 19/12 A2974 RMK AO2 SLP072 T01940117
  • 152056Z AUTO 19013G25KT 10SM CLR 21/12 A2972 RMK AO2 PK WND 20027/2018 SLP067 T02060117 56034

TAF N/A



MET'MAP, your aeronautical weather chart ! - Copyright ORBIFLY December 2007 - Disclaimer

ORBIFLY MET'MAP TEAM :

Programming & Development : Alexandra Zaïnal
Concept & Development : Baudouin d'Aumeries
Co-Development & Prog : Marc-Olivier Méhu
Technical & hardware support : Manuel Goepfert

Contact : metmap@orbifly.com




SOURCES & CREDITS :

   NOAA       Earth
Advisory